sensor_id;sensor_type;location;lat;lon;timestamp;P1;durP1;ratioP1;P2;durP2;ratioP2
15151;SDS011;7676;50.900;6.234;2022-12-29T00:07:51;0.63;;;0.40;;
15151;SDS011;7676;50.900;6.234;2022-12-29T00:22:54;0.40;;;0.33;;
15151;SDS011;7676;50.900;6.234;2022-12-29T00:38:15;0.67;;;0.40;;
15151;SDS011;7676;50.900;6.234;2022-12-29T00:53:37;0.50;;;0.40;;
15151;SDS011;7676;50.900;6.234;2022-12-29T01:08:40;0.80;;;0.60;;
15151;SDS011;7676;50.900;6.234;2022-12-29T01:23:43;0.63;;;0.60;;
15151;SDS011;7676;50.900;6.234;2022-12-29T01:38:45;1.97;;;0.70;;
15151;SDS011;7676;50.900;6.234;2022-12-29T01:53:49;1.10;;;0.80;;
15151;SDS011;7676;50.900;6.234;2022-12-29T02:08:53;1.87;;;0.83;;
15151;SDS011;7676;50.900;6.234;2022-12-29T02:54:44;1.10;;;0.60;;
15151;SDS011;7676;50.900;6.234;2022-12-29T03:24:59;0.57;;;0.40;;
15151;SDS011;7676;50.900;6.234;2022-12-29T03:40:04;0.60;;;0.50;;
15151;SDS011;7676;50.900;6.234;2022-12-29T03:55:09;0.60;;;0.60;;
15151;SDS011;7676;50.900;6.234;2022-12-29T04:10:13;1.77;;;0.80;;
15151;SDS011;7676;50.900;6.234;2022-12-29T04:25:19;0.60;;;0.60;;
15151;SDS011;7676;50.900;6.234;2022-12-29T04:40:22;0.80;;;0.80;;
15151;SDS011;7676;50.900;6.234;2022-12-29T04:55:26;1.37;;;0.80;;
15151;SDS011;7676;50.900;6.234;2022-12-29T05:10:29;1.70;;;0.90;;
15151;SDS011;7676;50.900;6.234;2022-12-29T05:25:36;1.17;;;0.70;;
15151;SDS011;7676;50.900;6.234;2022-12-29T05:41:15;0.93;;;0.60;;
15151;SDS011;7676;50.900;6.234;2022-12-29T05:56:34;1.67;;;0.70;;
15151;SDS011;7676;50.900;6.234;2022-12-29T06:11:37;3.03;;;0.70;;
15151;SDS011;7676;50.900;6.234;2022-12-29T06:26:40;1.43;;;0.70;;
15151;SDS011;7676;50.900;6.234;2022-12-29T06:41:44;1.60;;;1.00;;
15151;SDS011;7676;50.900;6.234;2022-12-29T06:57:07;1.10;;;0.60;;
15151;SDS011;7676;50.900;6.234;2022-12-29T07:12:10;2.30;;;0.90;;
15151;SDS011;7676;50.900;6.234;2022-12-29T07:27:14;2.07;;;0.90;;
15151;SDS011;7676;50.900;6.234;2022-12-29T07:42:18;2.83;;;0.97;;
15151;SDS011;7676;50.900;6.234;2022-12-29T07:57:25;2.37;;;1.10;;
15151;SDS011;7676;50.900;6.234;2022-12-29T08:12:33;3.33;;;1.30;;
15151;SDS011;7676;50.900;6.234;2022-12-29T08:27:36;3.43;;;1.07;;
15151;SDS011;7676;50.900;6.234;2022-12-29T08:42:39;5.20;;;1.60;;
15151;SDS011;7676;50.900;6.234;2022-12-29T08:57:42;4.13;;;1.60;;
15151;SDS011;7676;50.900;6.234;2022-12-29T09:12:51;4.83;;;1.37;;
15151;SDS011;7676;50.900;6.234;2022-12-29T09:27:53;4.47;;;1.40;;
15151;SDS011;7676;50.900;6.234;2022-12-29T10:28:42;4.57;;;2.13;;
15151;SDS011;7676;50.900;6.234;2022-12-29T10:43:52;4.93;;;1.83;;
15151;SDS011;7676;50.900;6.234;2022-12-29T10:58:59;7.90;;;2.10;;
15151;SDS011;7676;50.900;6.234;2022-12-29T11:14:19;5.30;;;1.43;;
15151;SDS011;7676;50.900;6.234;2022-12-29T11:29:29;6.73;;;1.60;;
15151;SDS011;7676;50.900;6.234;2022-12-29T11:44:44;5.40;;;1.63;;
15151;SDS011;7676;50.900;6.234;2022-12-29T11:59:50;3.53;;;1.23;;
15151;SDS011;7676;50.900;6.234;2022-12-29T12:14:58;3.97;;;1.37;;
15151;SDS011;7676;50.900;6.234;2022-12-29T12:30:26;4.03;;;1.27;;
15151;SDS011;7676;50.900;6.234;2022-12-29T13:31:35;4.43;;;1.57;;
15151;SDS011;7676;50.900;6.234;2022-12-29T13:46:44;4.97;;;2.30;;
15151;SDS011;7676;50.900;6.234;2022-12-29T14:01:50;3.43;;;1.63;;
15151;SDS011;7676;50.900;6.234;2022-12-29T14:17:19;3.80;;;1.43;;
15151;SDS011;7676;50.900;6.234;2022-12-29T14:48:03;4.07;;;1.73;;
15151;SDS011;7676;50.900;6.234;2022-12-29T15:03:06;4.67;;;2.20;;
15151;SDS011;7676;50.900;6.234;2022-12-29T15:18:25;4.73;;;1.97;;
15151;SDS011;7676;50.900;6.234;2022-12-29T15:33:31;4.73;;;2.13;;
15151;SDS011;7676;50.900;6.234;2022-12-29T15:48:41;5.40;;;2.00;;
15151;SDS011;7676;50.900;6.234;2022-12-29T16:03:45;6.13;;;2.00;;
15151;SDS011;7676;50.900;6.234;2022-12-29T16:18:49;6.77;;;2.30;;
15151;SDS011;7676;50.900;6.234;2022-12-29T16:33:58;5.97;;;2.23;;
15151;SDS011;7676;50.900;6.234;2022-12-29T16:49:14;8.10;;;2.40;;
15151;SDS011;7676;50.900;6.234;2022-12-29T17:04:22;9.33;;;2.77;;
15151;SDS011;7676;50.900;6.234;2022-12-29T17:19:30;11.30;;;3.37;;
15151;SDS011;7676;50.900;6.234;2022-12-29T17:34:40;7.87;;;2.70;;
15151;SDS011;7676;50.900;6.234;2022-12-29T17:49:44;7.23;;;2.40;;
15151;SDS011;7676;50.900;6.234;2022-12-29T18:04:47;8.93;;;2.90;;
15151;SDS011;7676;50.900;6.234;2022-12-29T18:19:54;8.50;;;3.90;;
15151;SDS011;7676;50.900;6.234;2022-12-29T18:34:57;7.77;;;3.23;;
15151;SDS011;7676;50.900;6.234;2022-12-29T18:50:01;5.77;;;2.27;;
15151;SDS011;7676;50.900;6.234;2022-12-29T19:05:39;7.63;;;3.00;;
15151;SDS011;7676;50.900;6.234;2022-12-29T19:20:39;7.77;;;2.97;;
15151;SDS011;7676;50.900;6.234;2022-12-29T19:35:43;7.50;;;2.53;;
15151;SDS011;7676;50.900;6.234;2022-12-29T19:50:46;8.33;;;2.80;;
15151;SDS011;7676;50.900;6.234;2022-12-29T20:05:49;5.73;;;2.40;;
15151;SDS011;7676;50.900;6.234;2022-12-29T20:20:53;7.03;;;2.73;;
15151;SDS011;7676;50.900;6.234;2022-12-29T20:36:07;8.30;;;2.47;;
15151;SDS011;7676;50.900;6.234;2022-12-29T20:51:12;6.00;;;2.27;;
15151;SDS011;7676;50.900;6.234;2022-12-29T21:06:15;8.00;;;3.73;;
15151;SDS011;7676;50.900;6.234;2022-12-29T21:21:19;3.83;;;2.13;;
15151;SDS011;7676;50.900;6.234;2022-12-29T21:36:24;7.33;;;3.10;;
15151;SDS011;7676;50.900;6.234;2022-12-29T21:51:28;8.57;;;3.00;;
15151;SDS011;7676;50.900;6.234;2022-12-29T22:06:57;8.73;;;3.10;;
15151;SDS011;7676;50.900;6.234;2022-12-29T22:22:20;7.30;;;2.50;;
15151;SDS011;7676;50.900;6.234;2022-12-29T22:37:23;9.50;;;3.00;;
15151;SDS011;7676;50.900;6.234;2022-12-29T22:52:26;8.83;;;2.70;;
15151;SDS011;7676;50.900;6.234;2022-12-29T23:07:28;7.97;;;3.00;;
15151;SDS011;7676;50.900;6.234;2022-12-29T23:22:32;9.13;;;2.80;;
15151;SDS011;7676;50.900;6.234;2022-12-29T23:37:34;9.57;;;2.67;;
15151;SDS011;7676;50.900;6.234;2022-12-29T23:52:37;8.50;;;3.10;;
